sensor_id;sensor_type;location;lat;lon;timestamp;pressure;altitude;pressure_sealevel;temperature;humidity
13068;BME280;6600;51.362;6.686;2023-04-07T00:01:27;100964.72;;;9.02;100.00
13068;BME280;6600;51.362;6.686;2023-04-07T00:03:52;100961.41;;;9.00;100.00
13068;BME280;6600;51.362;6.686;2023-04-07T00:06:18;100962.03;;;9.02;100.00
13068;BME280;6600;51.362;6.686;2023-04-07T00:08:43;100959.56;;;9.00;100.00
13068;BME280;6600;51.362;6.686;2023-04-07T00:11:08;100957.72;;;9.07;100.00
13068;BME280;6600;51.362;6.686;2023-04-07T00:13:34;100961.41;;;9.00;100.00
13068;BME280;6600;51.362;6.686;2023-04-07T00:15:59;100964.72;;;9.02;100.00
13068;BME280;6600;51.362;6.686;2023-04-07T00:18:24;100967.75;;;8.92;100.00
13068;BME280;6600;51.362;6.686;2023-04-07T00:20:50;100965.94;;;8.99;100.00
13068;BME280;6600;51.362;6.686;2023-04-07T00:23:15;100963.06;;;9.01;100.00
13068;BME280;6600;51.362;6.686;2023-04-07T00:25:40;100954.88;;;9.09;100.00
13068;BME280;6600;51.362;6.686;2023-04-07T00:28:06;100956.91;;;9.07;100.00
13068;BME280;6600;51.362;6.686;2023-04-07T00:30:31;100955.88;;;9.08;100.00
13068;BME280;6600;51.362;6.686;2023-04-07T00:32:56;100957.94;;;9.06;100.00
13068;BME280;6600;51.362;6.686;2023-04-07T00:35:22;100959.38;;;9.08;100.00
13068;BME280;6600;51.362;6.686;2023-04-07T00:37:47;100958.16;;;9.11;100.00
13068;BME280;6600;51.362;6.686;2023-04-07T00:40:12;100947.47;;;9.11;100.00
13068;BME280;6600;51.362;6.686;2023-04-07T00:42:38;100951.56;;;9.07;100.00
13068;BME280;6600;51.362;6.686;2023-04-07T00:45:03;100957.72;;;9.01;100.00
13068;BME280;6600;51.362;6.686;2023-04-07T00:47:29;100961.03;;;9.03;100.00
13068;BME280;6600;51.362;6.686;2023-04-07T00:49:54;100955.28;;;9.06;100.00
13068;BME280;6600;51.362;6.686;2023-04-07T00:52:20;100950.13;;;9.11;100.00
13068;BME280;6600;51.362;6.686;2023-04-07T00:54:53;100947.88;;;9.14;100.00
13068;BME280;6600;51.362;6.686;2023-04-07T00:57:18;100947.06;;;9.14;100.00
13068;BME280;6600;51.362;6.686;2023-04-07T00:59:44;100952.00;;;9.17;100.00
13068;BME280;6600;51.362;6.686;2023-04-07T01:02:15;100950.38;;;9.16;100.00
13068;BME280;6600;51.362;6.686;2023-04-07T01:13:47;100936.63;;;9.26;100.00
13068;BME280;6600;51.362;6.686;2023-04-07T01:16:18;100942.81;;;9.26;100.00
13068;BME280;6600;51.362;6.686;2023-04-07T01:18:50;100943.41;;;9.28;100.00
13068;BME280;6600;51.362;6.686;2023-04-07T01:21:17;100939.72;;;9.29;100.00
13068;BME280;6600;51.362;6.686;2023-04-07T01:26:28;100942.63;;;9.34;100.00
13068;BME280;6600;51.362;6.686;2023-04-07T01:31:59;100945.91;;;9.36;100.00
13068;BME280;6600;51.362;6.686;2023-04-07T01:34:29;100932.75;;;9.41;100.00
13068;BME280;6600;51.362;6.686;2023-04-07T01:36:57;100933.38;;;9.43;100.00
13068;BME280;6600;51.362;6.686;2023-04-07T01:39:25;100942.66;;;9.47;100.00
13068;BME280;6600;51.362;6.686;2023-04-07T01:41:51;100943.06;;;9.51;100.00
13068;BME280;6600;51.362;6.686;2023-04-07T01:44:18;100936.91;;;9.57;100.00
13068;BME280;6600;51.362;6.686;2023-04-07T01:46:44;100942.25;;;9.57;100.00
13068;BME280;6600;51.362;6.686;2023-04-07T01:49:11;100938.56;;;9.64;100.00
13068;BME280;6600;51.362;6.686;2023-04-07T01:51:37;100938.16;;;9.68;100.00
13068;BME280;6600;51.362;6.686;2023-04-07T01:54:03;100931.78;;;9.69;100.00
13068;BME280;6600;51.362;6.686;2023-04-07T01:56:29;100936.09;;;9.70;100.00
13068;BME280;6600;51.362;6.686;2023-04-07T01:58:54;100936.09;;;9.70;100.00
13068;BME280;6600;51.362;6.686;2023-04-07T02:01:20;100941.66;;;9.75;100.00
13068;BME280;6600;51.362;6.686;2023-04-07T02:03:46;100947.22;;;9.73;100.00
13068;BME280;6600;51.362;6.686;2023-04-07T02:06:17;100937.94;;;9.76;100.00
13068;BME280;6600;51.362;6.686;2023-04-07T02:08:49;100945.59;;;9.79;100.00
13068;BME280;6600;51.362;6.686;2023-04-07T02:11:17;100941.03;;;9.79;100.00
13068;BME280;6600;51.362;6.686;2023-04-07T02:13:45;100946.78;;;9.76;100.00
13068;BME280;6600;51.362;6.686;2023-04-07T02:16:11;100950.09;;;9.78;100.00
13068;BME280;6600;51.362;6.686;2023-04-07T02:18:38;100942.25;;;9.77;100.00
13068;BME280;6600;51.362;6.686;2023-04-07T02:21:06;100933.00;;;9.79;100.00
13068;BME280;6600;51.362;6.686;2023-04-07T02:23:34;100948.63;;;9.76;100.00
13068;BME280;6600;51.362;6.686;2023-04-07T02:26:00;100938.56;;;9.78;100.00
13068;BME280;6600;51.362;6.686;2023-04-07T02:28:25;100952.38;;;9.75;100.00
13068;BME280;6600;51.362;6.686;2023-04-07T02:30:50;100949.28;;;9.71;100.00
13068;BME280;6600;51.362;6.686;2023-04-07T02:33:16;100940.59;;;9.76;100.00
13068;BME280;6600;51.362;6.686;2023-04-07T02:35:41;100943.09;;;9.71;100.00
13068;BME280;6600;51.362;6.686;2023-04-07T02:38:06;100946.78;;;9.76;100.00
13068;BME280;6600;51.362;6.686;2023-04-07T02:40:31;100949.28;;;9.78;100.00
13068;BME280;6600;51.362;6.686;2023-04-07T02:42:57;100946.38;;;9.79;100.00
13068;BME280;6600;51.362;6.686;2023-04-07T02:45:23;100950.53;;;9.75;100.00
13068;BME280;6600;51.362;6.686;2023-04-07T02:47:48;100949.69;;;9.75;100.00
13068;BME280;6600;51.362;6.686;2023-04-07T02:50:13;100955.03;;;9.75;100.00
13068;BME280;6600;51.362;6.686;2023-04-07T02:52:39;100955.44;;;9.72;100.00
13068;BME280;6600;51.362;6.686;2023-04-07T02:55:05;100958.53;;;9.75;100.00
13068;BME280;6600;51.362;6.686;2023-04-07T02:57:31;100959.16;;;9.71;100.00
13068;BME280;6600;51.362;6.686;2023-04-07T02:59:56;100964.50;;;9.64;100.00
13068;BME280;6600;51.362;6.686;2023-04-07T03:02:23;100953.78;;;9.71;100.00
13068;BME280;6600;51.362;6.686;2023-04-07T03:04:50;100963.88;;;9.69;100.00
13068;BME280;6600;51.362;6.686;2023-04-07T03:07:16;100961.22;;;9.69;100.00
13068;BME280;6600;51.362;6.686;2023-04-07T03:09:41;100963.25;;;9.67;100.00
13068;BME280;6600;51.362;6.686;2023-04-07T03:12:07;100960.16;;;9.56;100.00
13068;BME280;6600;51.362;6.686;2023-04-07T03:14:32;100955.81;;;9.62;100.00
13068;BME280;6600;51.362;6.686;2023-04-07T03:16:57;100951.31;;;9.62;100.00
13068;BME280;6600;51.362;6.686;2023-04-07T03:19:22;100967.16;;;9.57;100.00
13068;BME280;6600;51.362;6.686;2023-04-07T03:21:49;100962.81;;;9.56;100.00
13068;BME280;6600;51.362;6.686;2023-04-07T03:24:14;100967.34;;;9.62;100.00
13068;BME280;6600;51.362;6.686;2023-04-07T03:26:40;100967.34;;;9.56;100.00
13068;BME280;6600;51.362;6.686;2023-04-07T03:29:05;100969.84;;;9.57;100.00
13068;BME280;6600;51.362;6.686;2023-04-07T03:31:31;100967.56;;;9.54;100.00
13068;BME280;6600;51.362;6.686;2023-04-07T03:33:56;100966.09;;;9.58;100.00
13068;BME280;6600;51.362;6.686;2023-04-07T03:36:21;100970.84;;;9.56;100.00
13068;BME280;6600;51.362;6.686;2023-04-07T03:38:48;100973.53;;;9.56;100.00
13068;BME280;6600;51.362;6.686;2023-04-07T03:41:14;100974.53;;;9.55;100.00
13068;BME280;6600;51.362;6.686;2023-04-07T03:43:40;100973.53;;;9.56;100.00
13068;BME280;6600;51.362;6.686;2023-04-07T03:46:06;100980.13;;;9.60;100.00
13068;BME280;6600;51.362;6.686;2023-04-07T03:48:31;100973.53;;;9.56;100.00
13068;BME280;6600;51.362;6.686;2023-04-07T03:50:56;100967.97;;;9.58;100.00
13068;BME280;6600;51.362;6.686;2023-04-07T03:53:22;100964.47;;;9.57;100.00
13068;BME280;6600;51.362;6.686;2023-04-07T03:55:47;100973.94;;;9.53;100.00
13068;BME280;6600;51.362;6.686;2023-04-07T03:58:13;100971.44;;;9.52;100.00
13068;BME280;6600;51.362;6.686;2023-04-07T04:00:38;100980.31;;;9.52;100.00
13068;BME280;6600;51.362;6.686;2023-04-07T04:03:03;100982.56;;;9.55;100.00
13068;BME280;6600;51.362;6.686;2023-04-07T04:05:29;100973.94;;;9.53;100.00
13068;BME280;6600;51.362;6.686;2023-04-07T04:07:54;100981.75;;;9.55;100.00
13068;BME280;6600;51.362;6.686;2023-04-07T04:10:20;100986.28;;;9.54;100.00
13068;BME280;6600;51.362;6.686;2023-04-07T04:12:46;100978.25;;;9.54;100.00
13068;BME280;6600;51.362;6.686;2023-04-07T04:15:12;100986.47;;;9.53;100.00
13068;BME280;6600;51.362;6.686;2023-04-07T04:17:37;100986.28;;;9.54;100.00
13068;BME280;6600;51.362;6.686;2023-04-07T04:20:03;100987.50;;;9.52;100.00
13068;BME280;6600;51.362;6.686;2023-04-07T04:22:29;100991.22;;;9.51;100.00
13068;BME280;6600;51.362;6.686;2023-04-07T04:24:54;100983.38;;;9.49;100.00
13068;BME280;6600;51.362;6.686;2023-04-07T04:27:20;100994.72;;;9.51;100.00
13068;BME280;6600;51.362;6.686;2023-04-07T04:29:45;101003.31;;;9.40;100.00
13068;BME280;6600;51.362;6.686;2023-04-07T04:32:11;101002.69;;;9.38;100.00
13068;BME280;6600;51.362;6.686;2023-04-07T04:34:37;100998.81;;;9.41;100.00
13068;BME280;6600;51.362;6.686;2023-04-07T04:37:02;101003.09;;;9.35;100.00
13068;BME280;6600;51.362;6.686;2023-04-07T04:39:27;101003.09;;;9.35;100.00
13068;BME280;6600;51.362;6.686;2023-04-07T04:41:52;101013.38;;;9.38;100.00
13068;BME280;6600;51.362;6.686;2023-04-07T04:44:18;101015.03;;;9.39;100.00
13068;BME280;6600;51.362;6.686;2023-04-07T04:46:43;101011.75;;;9.37;100.00
13068;BME280;6600;51.362;6.686;2023-04-07T04:49:08;101017.50;;;9.34;100.00
13068;BME280;6600;51.362;6.686;2023-04-07T04:51:34;101015.44;;;9.36;100.00
13068;BME280;6600;51.362;6.686;2023-04-07T04:53:59;101011.53;;;9.39;100.00
13068;BME280;6600;51.362;6.686;2023-04-07T04:56:24;101013.38;;;9.38;100.00
13068;BME280;6600;51.362;6.686;2023-04-07T04:58:50;101021.81;;;9.35;100.00
13068;BME280;6600;51.362;6.686;2023-04-07T05:01:15;101021.59;;;9.30;100.00
13068;BME280;6600;51.362;6.686;2023-04-07T05:03:41;101018.28;;;9.28;100.00
13068;BME280;6600;51.362;6.686;2023-04-07T05:06:06;101023.22;;;9.31;100.00
13068;BME280;6600;51.362;6.686;2023-04-07T05:08:32;101033.50;;;9.28;100.00
13068;BME280;6600;51.362;6.686;2023-04-07T05:10:57;101031.25;;;9.31;100.00
13068;BME280;6600;51.362;6.686;2023-04-07T05:13:22;101026.53;;;9.33;100.00
13068;BME280;6600;51.362;6.686;2023-04-07T05:15:48;101030.88;;;9.34;100.00
13068;BME280;6600;51.362;6.686;2023-04-07T05:18:13;101031.66;;;9.35;100.00
13068;BME280;6600;51.362;6.686;2023-04-07T05:20:39;101031.50;;;9.36;100.00
13068;BME280;6600;51.362;6.686;2023-04-07T05:23:04;101035.19;;;9.35;100.00
13068;BME280;6600;51.362;6.686;2023-04-07T05:25:30;101036.84;;;9.36;100.00
13068;BME280;6600;51.362;6.686;2023-04-07T05:27:57;101040.53;;;9.42;100.00
13068;BME280;6600;51.362;6.686;2023-04-07T05:30:23;101038.53;;;9.44;100.00
13068;BME280;6600;51.362;6.686;2023-04-07T05:32:49;101035.59;;;9.39;100.00
13068;BME280;6600;51.362;6.686;2023-04-07T05:35:15;101038.50;;;9.37;100.00
13068;BME280;6600;51.362;6.686;2023-04-07T05:37:40;101045.47;;;9.38;100.00
13068;BME280;6600;51.362;6.686;2023-04-07T05:40:06;101040.38;;;9.43;100.00
13068;BME280;6600;51.362;6.686;2023-04-07T05:42:31;101044.06;;;9.42;100.00
13068;BME280;6600;51.362;6.686;2023-04-07T05:44:56;101045.06;;;9.41;100.00
13068;BME280;6600;51.362;6.686;2023-04-07T05:47:22;101045.47;;;9.38;100.00
13068;BME280;6600;51.362;6.686;2023-04-07T05:49:47;101051.69;;;9.45;100.00
13068;BME280;6600;51.362;6.686;2023-04-07T05:52:13;101055.00;;;9.47;100.00
13068;BME280;6600;51.362;6.686;2023-04-07T05:54:38;101054.34;;;9.45;100.00
13068;BME280;6600;51.362;6.686;2023-04-07T05:57:07;101058.69;;;9.53;100.00
13068;BME280;6600;51.362;6.686;2023-04-07T05:59:33;101052.94;;;9.49;100.00
13068;BME280;6600;51.362;6.686;2023-04-07T06:01:59;101062.78;;;9.49;100.00
13068;BME280;6600;51.362;6.686;2023-04-07T06:04:24;101075.78;;;9.52;100.00
13068;BME280;6600;51.362;6.686;2023-04-07T06:06:49;101072.28;;;9.51;100.00
13068;BME280;6600;51.362;6.686;2023-04-07T06:09:16;101066.72;;;9.46;100.00
13068;BME280;6600;51.362;6.686;2023-04-07T06:11:42;101079.28;;;9.52;100.00
13068;BME280;6600;51.362;6.686;2023-04-07T06:14:08;101076.53;;;9.39;100.00
13068;BME280;6600;51.362;6.686;2023-04-07T06:16:33;101081.31;;;9.44;100.00
13068;BME280;6600;51.362;6.686;2023-04-07T06:18:59;101076.78;;;9.44;100.00
13068;BME280;6600;51.362;6.686;2023-04-07T06:21:25;101077.81;;;9.43;100.00
13068;BME280;6600;51.362;6.686;2023-04-07T06:23:51;101079.28;;;9.52;100.00
13068;BME280;6600;51.362;6.686;2023-04-07T06:26:16;101083.03;;;9.58;100.00
13068;BME280;6600;51.362;6.686;2023-04-07T06:28:42;101086.47;;;9.52;100.00
13068;BME280;6600;51.362;6.686;2023-04-07T06:31:07;101082.59;;;9.54;100.00
13068;BME280;6600;51.362;6.686;2023-04-07T06:33:33;101092.03;;;9.50;100.00
13068;BME280;6600;51.362;6.686;2023-04-07T06:35:58;101086.91;;;9.55;100.00
13068;BME280;6600;51.362;6.686;2023-04-07T06:38:23;101091.22;;;9.56;100.00
13068;BME280;6600;51.362;6.686;2023-04-07T06:40:50;101090.81;;;9.59;100.00
13068;BME280;6600;51.362;6.686;2023-04-07T06:43:15;101092.91;;;9.64;100.00
13068;BME280;6600;51.362;6.686;2023-04-07T06:45:40;101093.56;;;9.73;100.00
13068;BME280;6600;51.362;6.686;2023-04-07T06:48:06;101094.19;;;9.75;100.00
13068;BME280;6600;51.362;6.686;2023-04-07T06:50:31;101096.59;;;9.63;100.00
13068;BME280;6600;51.362;6.686;2023-04-07T06:52:57;101102.22;;;9.75;100.00
13068;BME280;6600;51.362;6.686;2023-04-07T06:55:22;101112.28;;;9.73;100.00
13068;BME280;6600;51.362;6.686;2023-04-07T06:57:47;101107.78;;;9.80;100.00
13068;BME280;6600;51.362;6.686;2023-04-07T07:00:15;101116.84;;;9.79;100.00
13068;BME280;6600;51.362;6.686;2023-04-07T07:02:40;101119.72;;;9.77;100.00
13068;BME280;6600;51.362;6.686;2023-04-07T07:05:06;101116.03;;;9.78;100.00
13068;BME280;6600;51.362;6.686;2023-04-07T07:07:32;101112.53;;;9.84;100.00
13068;BME280;6600;51.362;6.686;2023-04-07T07:09:57;101120.56;;;9.84;100.00
13068;BME280;6600;51.362;6.686;2023-04-07T07:12:23;101122.66;;;9.89;100.00
13068;BME280;6600;51.362;6.686;2023-04-07T07:14:48;101114.81;;;9.94;100.00
13068;BME280;6600;51.362;6.686;2023-04-07T07:17:13;101125.78;;;9.99;100.00
13068;BME280;6600;51.362;6.686;2023-04-07T07:19:38;101124.72;;;10.00;100.00
13068;BME280;6600;51.362;6.686;2023-04-07T07:22:04;101119.78;;;10.03;100.00
13068;BME280;6600;51.362;6.686;2023-04-07T07:24:29;101123.09;;;9.99;100.00
13068;BME280;6600;51.362;6.686;2023-04-07T07:26:58;101130.06;;;10.00;100.00
13068;BME280;6600;51.362;6.686;2023-04-07T07:29:23;101133.41;;;10.02;100.00
13068;BME280;6600;51.362;6.686;2023-04-07T07:31:48;101127.22;;;10.08;100.00
13068;BME280;6600;51.362;6.686;2023-04-07T07:34:13;101133.59;;;10.07;100.00
13068;BME280;6600;51.362;6.686;2023-04-07T07:36:39;101137.75;;;10.09;100.00
13068;BME280;6600;51.362;6.686;2023-04-07T07:39:05;101138.81;;;10.15;100.00
13068;BME280;6600;51.362;6.686;2023-04-07T07:41:31;101135.06;;;10.03;100.00
13068;BME280;6600;51.362;6.686;2023-04-07T07:43:56;101140.41;;;10.03;100.00
13068;BME280;6600;51.362;6.686;2023-04-07T07:46:22;101142.31;;;10.16;100.00
13068;BME280;6600;51.362;6.686;2023-04-07T07:48:50;101144.53;;;10.12;100.00
13068;BME280;6600;51.362;6.686;2023-04-07T07:51:15;101148.50;;;10.16;100.00
13068;BME280;6600;51.362;6.686;2023-04-07T07:53:40;101145.81;;;10.16;100.00
13068;BME280;6600;51.362;6.686;2023-04-07T07:56:05;101149.34;;;10.17;100.00
13068;BME280;6600;51.362;6.686;2023-04-07T07:58:31;101149.53;;;10.15;100.00
13068;BME280;6600;51.362;6.686;2023-04-07T08:00:56;101153.66;;;10.24;100.00
13068;BME280;6600;51.362;6.686;2023-04-07T08:03:21;101149.53;;;10.28;100.00
13068;BME280;6600;51.362;6.686;2023-04-07T08:05:47;101160.25;;;10.28;100.00
13068;BME280;6600;51.362;6.686;2023-04-07T08:08:13;101163.16;;;10.33;100.00
13068;BME280;6600;51.362;6.686;2023-04-07T08:10:38;101158.63;;;10.27;100.00
13068;BME280;6600;51.362;6.686;2023-04-07T08:13:04;101164.84;;;10.34;100.00
13068;BME280;6600;51.362;6.686;2023-04-07T08:15:29;101163.56;;;10.24;100.00
13068;BME280;6600;51.362;6.686;2023-04-07T08:17:55;101165.84;;;10.33;100.00
13068;BME280;6600;51.362;6.686;2023-04-07T08:20:21;101170.63;;;10.44;100.00
13068;BME280;6600;51.362;6.686;2023-04-07T08:22:47;101171.84;;;10.48;100.00
13068;BME280;6600;51.362;6.686;2023-04-07T08:25:12;101173.28;;;10.44;100.00
13068;BME280;6600;51.362;6.686;2023-04-07T08:27:38;101168.97;;;10.43;100.00
13068;BME280;6600;51.362;6.686;2023-04-07T08:30:04;101171.00;;;10.41;100.00
13068;BME280;6600;51.362;6.686;2023-04-07T08:32:39;101178.44;;;10.39;100.00
13068;BME280;6600;51.362;6.686;2023-04-07T08:35:05;101180.09;;;10.47;100.00
13068;BME280;6600;51.362;6.686;2023-04-07T08:37:32;101182.56;;;10.48;100.00
13068;BME280;6600;51.362;6.686;2023-04-07T08:39:58;101187.13;;;10.54;100.00
13068;BME280;6600;51.362;6.686;2023-04-07T08:42:27;101192.69;;;10.59;100.00
13068;BME280;6600;51.362;6.686;2023-04-07T08:44:58;101196.59;;;10.57;100.00
13068;BME280;6600;51.362;6.686;2023-04-07T08:47:27;101195.16;;;10.61;100.00
13068;BME280;6600;51.362;6.686;2023-04-07T08:49:56;101198.25;;;10.64;100.00
13068;BME280;6600;51.362;6.686;2023-04-07T08:52:32;101201.16;;;10.70;100.00
13068;BME280;6600;51.362;6.686;2023-04-07T08:54:57;101199.69;;;10.60;100.00
13068;BME280;6600;51.362;6.686;2023-04-07T08:57:30;101205.25;;;10.59;100.00
13068;BME280;6600;51.362;6.686;2023-04-07T08:59:58;101208.16;;;10.57;100.00
13068;BME280;6600;51.362;6.686;2023-04-07T09:02:28;101206.06;;;10.53;100.00
13068;BME280;6600;51.362;6.686;2023-04-07T09:04:55;101205.66;;;10.49;100.00
13068;BME280;6600;51.362;6.686;2023-04-07T09:07:21;101208.75;;;10.53;100.00
13068;BME280;6600;51.362;6.686;2023-04-07T09:09:46;101210.59;;;10.52;100.00
13068;BME280;6600;51.362;6.686;2023-04-07T09:12:12;101213.84;;;10.41;100.00
13068;BME280;6600;51.362;6.686;2023-04-07T09:14:37;101212.22;;;10.40;100.00
13068;BME280;6600;51.362;6.686;2023-04-07T09:17:03;101211.41;;;10.46;100.00
13068;BME280;6600;51.362;6.686;2023-04-07T09:19:28;101220.47;;;10.45;100.00
13068;BME280;6600;51.362;6.686;2023-04-07T09:21:55;101218.44;;;10.47;100.00
13068;BME280;6600;51.362;6.686;2023-04-07T09:24:26;101216.78;;;10.46;100.00
13068;BME280;6600;51.362;6.686;2023-04-07T09:27:08;101216.16;;;10.44;100.00
13068;BME280;6600;51.362;6.686;2023-04-07T09:29:34;101227.91;;;10.43;100.00
13068;BME280;6600;51.362;6.686;2023-04-07T09:32:00;101225.41;;;10.48;100.00
13068;BME280;6600;51.362;6.686;2023-04-07T09:34:31;101220.06;;;10.48;100.00
13068;BME280;6600;51.362;6.686;2023-04-07T09:36:57;101222.97;;;10.47;100.00
13068;BME280;6600;51.362;6.686;2023-04-07T09:39:23;101220.47;;;10.45;100.00
13068;BME280;6600;51.362;6.686;2023-04-07T09:41:49;101214.69;;;10.48;100.00
13068;BME280;6600;51.362;6.686;2023-04-07T09:44:14;101218.00;;;10.37;100.00
13068;BME280;6600;51.362;6.686;2023-04-07T09:46:57;101220.06;;;10.48;100.00
13068;BME280;6600;51.362;6.686;2023-04-07T09:49:24;101216.38;;;10.49;100.00
13068;BME280;6600;51.362;6.686;2023-04-07T09:52:01;101222.97;;;10.53;100.00
13068;BME280;6600;51.362;6.686;2023-04-07T09:54:36;101229.56;;;10.44;100.00
13068;BME280;6600;51.362;6.686;2023-04-07T09:57:03;101243.16;;;10.49;100.00
13068;BME280;6600;51.362;6.686;2023-04-07T09:59:30;101231.19;;;10.45;100.00
13068;BME280;6600;51.362;6.686;2023-04-07T10:01:57;101241.56;;;10.61;100.00
13068;BME280;6600;51.362;6.686;2023-04-07T10:04:23;101226.09;;;10.63;100.00
13068;BME280;6600;51.362;6.686;2023-04-07T10:06:51;101233.53;;;10.68;100.00
13068;BME280;6600;51.362;6.686;2023-04-07T10:09:16;101234.56;;;10.80;100.00
13068;BME280;6600;51.362;6.686;2023-04-07T10:11:43;101232.53;;;10.89;100.00
13068;BME280;6600;51.362;6.686;2023-04-07T10:14:09;101228.00;;;10.96;100.00
13068;BME280;6600;51.362;6.686;2023-04-07T10:16:38;101232.94;;;11.12;100.00
13068;BME280;6600;51.362;6.686;2023-04-07T10:19:05;101241.59;;;11.14;100.00
13068;BME280;6600;51.362;6.686;2023-04-07T10:21:34;101237.47;;;11.25;100.00
13068;BME280;6600;51.362;6.686;2023-04-07T10:24:36;101241.38;;;11.35;100.00
13068;BME280;6600;51.362;6.686;2023-04-07T10:27:09;101245.31;;;11.39;100.00
13068;BME280;6600;51.362;6.686;2023-04-07T10:29:44;101244.03;;;11.48;100.00
13068;BME280;6600;51.362;6.686;2023-04-07T10:32:10;101253.56;;;11.57;100.00
13068;BME280;6600;51.362;6.686;2023-04-07T10:37:21;101258.72;;;11.79;100.00
13068;BME280;6600;51.362;6.686;2023-04-07T10:39:51;101253.72;;;11.76;100.00
13068;BME280;6600;51.362;6.686;2023-04-07T10:45:09;101259.75;;;11.64;100.00
13068;BME280;6600;51.362;6.686;2023-04-07T10:50:24;101270.47;;;11.64;100.00
13068;BME280;6600;51.362;6.686;2023-04-07T10:55:41;101272.13;;;11.39;100.00
13068;BME280;6600;51.362;6.686;2023-04-07T11:01:15;101275.44;;;11.35;100.00
13068;BME280;6600;51.362;6.686;2023-04-07T11:03:29;101279.16;;;11.27;100.00
13068;BME280;6600;51.362;6.686;2023-04-07T11:06:05;101276.06;;;11.24;100.00
13068;BME280;6600;51.362;6.686;2023-04-07T11:08:43;101279.97;;;11.28;100.00
13068;BME280;6600;51.362;6.686;2023-04-07T11:11:10;101284.50;;;11.14;100.00
13068;BME280;6600;51.362;6.686;2023-04-07T11:13:45;101277.69;;;10.92;100.00
13068;BME280;6600;51.362;6.686;2023-04-07T11:16:12;101285.31;;;10.95;100.00
13068;BME280;6600;51.362;6.686;2023-04-07T11:18:38;101287.75;;;10.77;100.00
13068;BME280;6600;51.362;6.686;2023-04-07T11:21:06;101285.72;;;10.85;100.00
13068;BME280;6600;51.362;6.686;2023-04-07T11:23:42;101288.81;;;10.89;100.00
13068;BME280;6600;51.362;6.686;2023-04-07T11:26:11;101295.22;;;10.88;100.00
13068;BME280;6600;51.362;6.686;2023-04-07T11:28:51;101280.56;;;10.97;100.00
13068;BME280;6600;51.362;6.686;2023-04-07T11:31:21;101293.19;;;11.03;100.00
13068;BME280;6600;51.362;6.686;2023-04-07T11:33:51;101295.66;;;11.11;100.00
13068;BME280;6600;51.362;6.686;2023-04-07T11:36:28;101292.34;;;11.35;100.00
13068;BME280;6600;51.362;6.686;2023-04-07T11:38:55;101295.69;;;11.37;100.00
13068;BME280;6600;51.362;6.686;2023-04-07T11:41:22;101295.66;;;11.50;100.00
13068;BME280;6600;51.362;6.686;2023-04-07T11:43:47;101291.31;;;11.62;100.00
13068;BME280;6600;51.362;6.686;2023-04-07T11:46:15;101290.31;;;11.50;100.00
13068;BME280;6600;51.362;6.686;2023-04-07T11:48:42;101301.88;;;11.44;100.00
13068;BME280;6600;51.362;6.686;2023-04-07T11:51:15;101301.47;;;11.47;100.00
13068;BME280;6600;51.362;6.686;2023-04-07T11:53:41;101300.41;;;11.35;100.00
13068;BME280;6600;51.362;6.686;2023-04-07T11:56:08;101296.69;;;11.62;100.00
13068;BME280;6600;51.362;6.686;2023-04-07T11:58:36;101308.47;;;11.68;99.35
13068;BME280;6600;51.362;6.686;2023-04-07T12:01:04;101302.28;;;11.74;99.34
13068;BME280;6600;51.362;6.686;2023-04-07T12:03:32;101311.09;;;12.01;99.76
13068;BME280;6600;51.362;6.686;2023-04-07T12:05:59;101309.22;;;12.08;98.61
13068;BME280;6600;51.362;6.686;2023-04-07T12:08:41;101313.91;;;12.32;98.41
13068;BME280;6600;51.362;6.686;2023-04-07T12:11:07;101314.47;;;12.47;97.49
13068;BME280;6600;51.362;6.686;2023-04-07T12:13:34;101309.47;;;12.57;97.36
13068;BME280;6600;51.362;6.686;2023-04-07T12:16:00;101321.03;;;12.64;96.28
13068;BME280;6600;51.362;6.686;2023-04-07T12:18:26;101325.97;;;12.68;95.78
13068;BME280;6600;51.362;6.686;2023-04-07T12:20:52;101325.34;;;12.72;95.33
13068;BME280;6600;51.362;6.686;2023-04-07T12:23:17;101324.53;;;12.65;94.71
13068;BME280;6600;51.362;6.686;2023-04-07T12:25:43;101331.16;;;12.62;95.16
13068;BME280;6600;51.362;6.686;2023-04-07T12:28:08;101337.38;;;12.56;95.33
13068;BME280;6600;51.362;6.686;2023-04-07T12:30:35;101332.59;;;12.58;95.67
13068;BME280;6600;51.362;6.686;2023-04-07T12:33:00;101341.38;;;12.41;95.69
13068;BME280;6600;51.362;6.686;2023-04-07T12:35:27;101336.81;;;12.41;95.74
13068;BME280;6600;51.362;6.686;2023-04-07T12:37:53;101339.75;;;12.33;95.41
13068;BME280;6600;51.362;6.686;2023-04-07T12:40:18;101338.53;;;12.29;95.86
13068;BME280;6600;51.362;6.686;2023-04-07T12:42:44;101341.25;;;12.16;95.48
13068;BME280;6600;51.362;6.686;2023-04-07T12:45:09;101348.91;;;12.12;96.78
13068;BME280;6600;51.362;6.686;2023-04-07T12:47:35;101342.47;;;12.13;96.34
13068;BME280;6600;51.362;6.686;2023-04-07T12:50:00;101348.06;;;12.12;96.00
13068;BME280;6600;51.362;6.686;2023-04-07T12:52:26;101334.44;;;12.07;96.41
13068;BME280;6600;51.362;6.686;2023-04-07T12:54:51;101346.25;;;12.06;96.88
13068;BME280;6600;51.362;6.686;2023-04-07T12:57:17;101348.53;;;11.96;96.50
13068;BME280;6600;51.362;6.686;2023-04-07T12:59:42;101353.50;;;11.86;96.84
13068;BME280;6600;51.362;6.686;2023-04-07T13:02:08;101349.34;;;11.77;96.71
13068;BME280;6600;51.362;6.686;2023-04-07T13:04:38;101351.03;;;11.78;97.95
13068;BME280;6600;51.362;6.686;2023-04-07T13:07:07;101349.56;;;11.82;98.44
13068;BME280;6600;51.362;6.686;2023-04-07T13:09:33;101351.84;;;11.72;98.40
13068;BME280;6600;51.362;6.686;2023-04-07T13:11:59;101349.16;;;11.78;98.74
13068;BME280;6600;51.362;6.686;2023-04-07T13:14:24;101354.53;;;11.85;99.06
13068;BME280;6600;51.362;6.686;2023-04-07T13:16:50;101344.59;;;11.92;99.37
13068;BME280;6600;51.362;6.686;2023-04-07T13:19:15;101344.59;;;11.92;99.76
13068;BME280;6600;51.362;6.686;2023-04-07T13:21:41;101345.03;;;11.89;99.95
13068;BME280;6600;51.362;6.686;2023-04-07T13:24:06;101351.41;;;11.88;99.65